createdAt,value
2018-07-08T00:00:23.527Z,0.00
2018-07-08T00:01:23.544Z,0.00
2018-07-08T00:02:26.022Z,0.00
2018-07-08T00:03:30.958Z,0.00
2018-07-08T00:04:45.995Z,0.00
2018-07-08T00:05:24.026Z,0.00
2018-07-08T00:07:55.778Z,0.00
2018-07-08T00:09:16.790Z,0.00
2018-07-08T00:10:16.786Z,0.00
2018-07-08T00:14:00.214Z,0.00
2018-07-08T00:15:21.224Z,0.00
2018-07-08T00:16:00.221Z,0.00
2018-07-08T00:18:31.234Z,0.00
2018-07-08T00:19:31.978Z,0.00
2018-07-08T00:20:31.453Z,0.00
2018-07-08T00:23:32.201Z,0.00
2018-07-08T00:24:04.216Z,0.00
2018-07-08T00:26:42.391Z,0.00
2018-07-08T00:27:37.394Z,0.00
2018-07-08T00:28:36.399Z,0.00
2018-07-08T00:29:57.871Z,0.00
2018-07-08T00:30:57.098Z,0.00
2018-07-08T00:31:36.197Z,0.00
2018-07-08T00:32:36.898Z,0.00
2018-07-08T00:33:57.898Z,0.00
2018-07-08T00:34:37.401Z,0.00
2018-07-08T00:35:40.330Z,0.00
2018-07-08T00:36:37.398Z,0.00
2018-07-08T00:37:37.398Z,0.00
2018-07-08T00:38:37.909Z,0.00
2018-07-08T00:39:38.935Z,0.00
2018-07-08T00:40:37.898Z,0.00
2018-07-08T00:41:37.898Z,0.00
2018-07-08T00:42:37.523Z,0.00
2018-07-08T00:43:59.397Z,0.00
2018-07-08T00:44:38.400Z,0.00
2018-07-08T00:45:38.401Z,0.00
2018-07-08T00:48:31.135Z,0.00
2018-07-08T00:49:10.144Z,0.00
2018-07-08T00:50:31.139Z,0.00
2018-07-08T00:54:14.784Z,0.00
2018-07-08T00:56:44.782Z,0.00
2018-07-08T00:58:05.788Z,0.00
2018-07-08T00:58:44.783Z,0.00
2018-07-08T00:59:45.280Z,0.00
2018-07-08T01:02:16.650Z,0.00
2018-07-08T01:03:30.655Z,0.00
2018-07-08T01:05:49.738Z,0.00
2018-07-08T01:06:48.283Z,0.00
2018-07-08T01:07:48.285Z,0.00
2018-07-08T01:08:48.865Z,0.00
2018-07-08T01:10:11.785Z,0.00
2018-07-08T01:10:48.803Z,0.00
2018-07-08T01:11:49.283Z,0.00
2018-07-08T01:12:50.726Z,0.00
2018-07-08T01:13:50.738Z,0.00
2018-07-08T01:14:50.744Z,0.00
2018-07-08T01:15:49.283Z,0.00
2018-07-08T01:17:03.786Z,0.00
2018-07-08T01:17:49.793Z,0.00
2018-07-08T01:20:21.271Z,0.00
2018-07-08T01:21:21.278Z,0.00
2018-07-08T01:22:21.278Z,0.00
2018-07-08T01:23:23.824Z,0.00
2018-07-08T01:24:42.778Z,0.00
2018-07-08T01:25:21.779Z,0.00
2018-07-08T01:26:21.778Z,0.00
2018-07-08T01:27:21.392Z,0.00
2018-07-08T01:28:45.286Z,0.00
2018-07-08T01:29:22.279Z,0.00
2018-07-08T01:30:21.747Z,0.00
2018-07-08T01:31:22.778Z,0.00
2018-07-08T01:33:56.151Z,0.00
2018-07-08T01:34:54.151Z,0.00
2018-07-08T01:35:53.626Z,0.00
2018-07-08T01:37:21.652Z,0.00
2018-07-08T01:38:00.651Z,0.00
2018-07-08T01:40:28.631Z,0.00
2018-07-08T01:41:27.650Z,0.00
2018-07-08T01:42:26.198Z,0.00
2018-07-08T01:46:29.420Z,0.00
2018-07-08T01:47:29.422Z,0.00
2018-07-08T01:48:30.853Z,0.00
2018-07-08T01:49:29.918Z,0.00
2018-07-08T01:52:03.835Z,0.00
2018-07-08T01:53:23.878Z,0.00
2018-07-08T01:54:22.819Z,0.00
2018-07-08T01:55:02.759Z,0.00
2018-07-08T01:56:01.392Z,0.00
2018-07-08T01:57:04.320Z,0.00
2018-07-08T01:58:16.317Z,0.00
2018-07-08T01:59:02.319Z,0.00
2018-07-08T02:00:23.320Z,0.00
2018-07-08T02:01:04.820Z,0.00
2018-07-08T02:02:04.819Z,0.00
2018-07-08T02:03:02.816Z,0.00
2018-07-08T02:04:02.825Z,0.00
2018-07-08T02:05:18.293Z,0.00
2018-07-08T02:06:03.320Z,0.00
2018-07-08T02:07:04.300Z,0.00
2018-07-08T02:08:03.323Z,0.00
2018-07-08T02:09:05.752Z,0.00
2018-07-08T02:10:03.828Z,0.00
2018-07-08T02:14:07.008Z,0.00
2018-07-08T02:15:07.010Z,0.00
2018-07-08T02:16:09.014Z,0.00
2018-07-08T02:19:00.260Z,0.00
2018-07-08T02:19:39.260Z,0.00
2018-07-08T02:23:42.173Z,0.00
2018-07-08T02:24:42.183Z,0.00
2018-07-08T02:26:03.179Z,0.00
2018-07-08T02:26:45.680Z,0.00
2018-07-08T02:27:42.677Z,0.00
2018-07-08T02:28:42.684Z,0.00
2018-07-08T02:29:42.681Z,0.00
2018-07-08T02:32:14.429Z,0.00
2018-07-08T02:33:15.426Z,0.00
2018-07-08T02:34:14.422Z,0.00
2018-07-08T02:35:20.924Z,0.00
2018-07-08T02:36:14.925Z,0.00
2018-07-08T02:37:16.925Z,0.00
2018-07-08T02:38:17.909Z,0.00
2018-07-08T02:39:21.425Z,0.00
2018-07-08T02:40:16.419Z,0.00
2018-07-08T02:41:15.425Z,0.00
2018-07-08T02:42:15.424Z,4.00
2018-07-08T02:43:15.896Z,4.00
2018-07-08T02:44:36.929Z,0.00
2018-07-08T02:45:15.924Z,0.00
2018-07-08T02:46:15.924Z,4.00
2018-07-08T02:47:16.426Z,4.00
2018-07-08T02:48:37.427Z,4.00
2018-07-08T02:49:37.424Z,4.00
2018-07-08T02:50:16.425Z,4.00
2018-07-08T02:54:42.070Z,4.00
2018-07-08T02:55:20.606Z,8.00
2018-07-08T02:56:19.647Z,8.00
2018-07-08T03:02:16.163Z,16.00
2018-07-08T03:03:14.556Z,16.00
2018-07-08T03:03:55.230Z,20.00
2018-07-08T03:04:54.237Z,20.00
2018-07-08T03:07:47.535Z,32.00
2018-07-08T03:08:26.494Z,32.00
2018-07-08T03:09:28.409Z,36.00
2018-07-08T03:10:26.476Z,40.00
2018-07-08T03:11:47.977Z,44.00
2018-07-08T03:15:29.814Z,60.00
2018-07-08T03:16:50.826Z,64.00
2018-07-08T03:17:29.825Z,72.00
2018-07-08T03:18:30.320Z,72.00
2018-07-08T03:19:30.320Z,80.00
2018-07-08T03:20:51.320Z,88.00
2018-07-08T03:21:30.320Z,92.00
2018-07-08T03:25:33.813Z,116.00
2018-07-08T03:26:33.821Z,120.00
2018-07-08T03:27:33.824Z,128.00
2018-07-08T03:28:37.752Z,136.00
2018-07-08T03:29:34.320Z,140.00
2018-07-08T03:30:34.325Z,144.00
2018-07-08T03:31:34.327Z,156.00
2018-07-08T03:32:34.821Z,160.00
2018-07-08T03:33:34.896Z,172.00
2018-07-08T03:34:34.822Z,176.00
2018-07-08T03:35:34.820Z,188.00
2018-07-08T03:38:06.564Z,204.00
2018-07-08T03:39:20.580Z,216.00
2018-07-08T03:40:06.567Z,224.00
2018-07-08T03:44:30.770Z,268.00
2018-07-08T03:45:11.204Z,272.00
2018-07-08T03:46:09.771Z,284.00
2018-07-08T03:47:24.341Z,300.00
2018-07-08T03:48:24.272Z,308.00
2018-07-08T03:49:09.493Z,316.00
2018-07-08T03:53:16.617Z,360.00
2018-07-08T03:54:13.192Z,368.00
2018-07-08T03:55:13.188Z,376.00
2018-07-08T03:56:13.710Z,380.00
2018-07-08T03:57:34.707Z,380.00
2018-07-08T03:58:27.686Z,380.00
2018-07-08T03:59:13.683Z,380.00
2018-07-08T04:00:35.186Z,392.00
2018-07-08T04:01:14.183Z,404.00
2018-07-08T04:02:14.185Z,412.00
2018-07-08T04:03:16.117Z,424.00
2018-07-08T04:04:35.702Z,436.00
2018-07-08T04:05:14.684Z,456.00
2018-07-08T04:06:14.685Z,480.00
2018-07-08T04:07:14.685Z,512.00
2018-07-08T04:08:16.182Z,540.00
2018-07-08T04:09:17.198Z,548.00
2018-07-08T04:10:15.189Z,564.00
2018-07-08T04:12:46.800Z,576.00
2018-07-08T04:14:07.810Z,576.00
2018-07-08T04:15:07.849Z,592.00
2018-07-08T04:17:39.544Z,632.00
2018-07-08T04:18:40.984Z,640.00
2018-07-08T04:19:18.551Z,652.00
2018-07-08T04:22:04.320Z,680.00
2018-07-08T04:22:49.658Z,684.00
2018-07-08T04:23:50.319Z,692.00
2018-07-08T04:24:50.826Z,700.00
2018-07-08T04:25:50.057Z,716.00
2018-07-08T04:27:11.828Z,724.00
2018-07-08T04:27:50.295Z,736.00
2018-07-08T04:30:46.035Z,760.00
2018-07-08T04:31:23.043Z,776.00
2018-07-08T04:32:25.005Z,784.00
2018-07-08T04:33:23.042Z,796.00
2018-07-08T04:34:44.552Z,740.00
2018-07-08T04:35:22.765Z,808.00
2018-07-08T04:36:44.543Z,812.00
2018-07-08T04:37:23.542Z,820.00
2018-07-08T04:38:24.042Z,824.00
2018-07-08T04:39:24.995Z,832.00
2018-07-08T04:40:47.048Z,840.00
2018-07-08T04:41:24.042Z,844.00
2018-07-08T04:42:31.502Z,848.00
2018-07-08T04:43:23.601Z,856.00
2018-07-08T04:44:24.549Z,860.00
2018-07-08T04:47:19.347Z,876.00
2018-07-08T04:47:56.417Z,880.00
2018-07-08T04:48:56.419Z,888.00
2018-07-08T04:49:56.913Z,896.00
2018-07-08T04:50:56.982Z,900.00
2018-07-08T04:53:30.401Z,916.00
2018-07-08T04:54:28.403Z,916.00
2018-07-08T04:55:49.903Z,924.00
2018-07-08T04:59:33.465Z,944.00
2018-07-08T05:00:53.054Z,944.00
2018-07-08T05:01:32.009Z,948.00
2018-07-08T05:04:24.758Z,960.00
2018-07-08T05:05:03.773Z,968.00
2018-07-08T05:06:03.778Z,972.00
2018-07-08T05:07:05.238Z,976.00
2018-07-08T05:08:24.439Z,976.00
2018-07-08T05:09:04.266Z,980.00
2018-07-08T05:10:04.265Z,988.00
2018-07-08T05:11:25.262Z,988.00
2018-07-08T05:12:03.892Z,996.00
2018-07-08T05:13:06.198Z,996.00
2018-07-08T05:14:06.198Z,1000.00
2018-07-08T05:15:04.766Z,1008.00
2018-07-08T05:16:04.771Z,1008.00
2018-07-08T05:17:04.403Z,1012.00
2018-07-08T05:19:59.645Z,1024.00
2018-07-08T05:20:57.652Z,1028.00
2018-07-08T05:21:36.652Z,1028.00
2018-07-08T05:24:08.413Z,1044.00
2018-07-08T05:25:08.420Z,1048.00
2018-07-08T05:26:08.425Z,1048.00
2018-07-08T05:28:40.176Z,1060.00
2018-07-08T05:29:40.197Z,1064.00
2018-07-08T05:30:40.174Z,1060.00
2018-07-08T05:31:42.674Z,1068.00
2018-07-08T05:34:12.057Z,1076.00
2018-07-08T05:35:13.997Z,1080.00
2018-07-08T05:36:12.058Z,1084.00
2018-07-08T05:37:12.058Z,1088.00
2018-07-08T05:38:14.012Z,1092.00
2018-07-08T05:39:16.491Z,1092.00
2018-07-08T05:40:13.998Z,1096.00
2018-07-08T05:41:12.567Z,1104.00
2018-07-08T05:42:12.558Z,1104.00
2018-07-08T05:43:13.061Z,1108.00
2018-07-08T05:44:12.289Z,1112.00
2018-07-08T05:45:13.064Z,1112.00
2018-07-08T05:46:13.057Z,1116.00
2018-07-08T05:47:36.491Z,1120.00
2018-07-08T05:48:13.557Z,1124.00
2018-07-08T05:49:13.559Z,1128.00
2018-07-08T05:50:13.625Z,1132.00
2018-07-08T05:52:45.327Z,1144.00
2018-07-08T05:53:45.388Z,1144.00
2018-07-08T05:54:45.334Z,1152.00
2018-07-08T05:55:45.335Z,1156.00
2018-07-08T05:58:17.112Z,1168.00
2018-07-08T05:59:17.121Z,1176.00
2018-07-08T06:00:23.621Z,1176.00
2018-07-08T06:01:39.554Z,1184.00
2018-07-08T06:02:23.621Z,1184.00
2018-07-08T06:03:23.637Z,1192.00
2018-07-08T06:04:39.175Z,1192.00
2018-07-08T06:05:18.124Z,1196.00
2018-07-08T06:06:39.124Z,1200.00
2018-07-08T06:07:18.120Z,1200.00
2018-07-08T06:09:49.158Z,1208.00
2018-07-08T06:10:49.906Z,1208.00
2018-07-08T06:11:49.898Z,1212.00
2018-07-08T06:12:49.502Z,1212.00
2018-07-08T06:14:10.598Z,1220.00
2018-07-08T06:14:51.334Z,1224.00
2018-07-08T06:15:50.398Z,1224.00
2018-07-08T06:16:50.441Z,1232.00
2018-07-08T06:19:36.142Z,1228.00
2018-07-08T06:20:22.149Z,1232.00
2018-07-08T06:21:22.149Z,1248.00
2018-07-08T06:22:22.649Z,1248.00
2018-07-08T06:25:24.471Z,1252.00
2018-07-08T06:25:56.552Z,1264.00
2018-07-08T06:28:47.991Z,1264.00
2018-07-08T06:29:26.999Z,1288.00
2018-07-08T06:30:27.005Z,1276.00
2018-07-08T06:33:04.766Z,1296.00
2018-07-08T06:33:58.840Z,1296.00
2018-07-08T06:34:58.767Z,1288.00
2018-07-08T06:35:58.765Z,1292.00
2018-07-08T06:37:19.348Z,1284.00
2018-07-08T06:38:21.266Z,1300.00
2018-07-08T06:38:59.265Z,1304.00
2018-07-08T06:39:59.266Z,1328.00
2018-07-08T06:41:05.770Z,1304.00
2018-07-08T06:41:59.767Z,1304.00
2018-07-08T06:42:59.766Z,1308.00
2018-07-08T06:43:59.768Z,1316.00
2018-07-08T06:45:00.266Z,1340.00
2018-07-08T06:46:00.273Z,1324.00
2018-07-08T06:47:00.266Z,1332.00
2018-07-08T06:48:00.267Z,1356.00
2018-07-08T06:49:02.245Z,1372.00
2018-07-08T06:50:03.699Z,1336.00
2018-07-08T06:51:00.774Z,1340.00
2018-07-08T06:52:00.784Z,1344.00
2018-07-08T06:54:31.824Z,1388.00
2018-07-08T06:55:33.985Z,1392.00
2018-07-08T06:59:35.675Z,1396.00
2018-07-08T07:03:38.619Z,1416.00
2018-07-08T07:05:01.602Z,1420.00
2018-07-08T07:05:38.627Z,1428.00
2018-07-08T07:07:00.134Z,1436.00
2018-07-08T07:07:39.126Z,1440.00
2018-07-08T07:08:39.126Z,1448.00
2018-07-08T07:09:39.126Z,1460.00
2018-07-08T07:13:42.307Z,1504.00
2018-07-08T07:14:42.319Z,1512.00
2018-07-08T07:15:42.318Z,1528.00
2018-07-08T07:16:42.820Z,1536.00
2018-07-08T07:19:14.631Z,1580.00
2018-07-08T07:20:15.696Z,1588.00
2018-07-08T07:21:14.698Z,1604.00
2018-07-08T07:23:46.024Z,1648.00
2018-07-08T07:24:46.960Z,1664.00
2018-07-08T07:25:46.963Z,1680.00
2018-07-08T07:26:46.980Z,1704.00
2018-07-08T07:27:46.960Z,1724.00
2018-07-08T07:30:18.709Z,1776.00
2018-07-08T07:31:18.715Z,1792.00
2018-07-08T07:32:19.714Z,1800.00
2018-07-08T07:34:50.462Z,1812.00
2018-07-08T07:35:52.961Z,1900.00
2018-07-08T07:36:50.469Z,1924.00
2018-07-08T07:37:51.910Z,1940.00
2018-07-08T07:38:50.969Z,1704.00
2018-07-08T07:39:50.970Z,1616.00
2018-07-08T07:41:11.970Z,1652.00
2018-07-08T07:41:50.969Z,1876.00
2018-07-08T07:42:51.467Z,1912.00
2018-07-08T07:43:51.518Z,1744.00
2018-07-08T07:44:51.467Z,2140.00
2018-07-08T07:46:12.472Z,2156.00
2018-07-08T07:46:51.469Z,2172.00
2018-07-08T07:47:51.975Z,2188.00
2018-07-08T07:49:12.975Z,2180.00
2018-07-08T07:49:52.965Z,2272.00
2018-07-08T07:50:51.968Z,2260.00
2018-07-08T07:51:52.472Z,2256.00
2018-07-08T07:52:51.698Z,2284.00
2018-07-08T07:53:52.468Z,2308.00
2018-07-08T07:54:52.468Z,2336.00
2018-07-08T07:58:55.692Z,2388.00
2018-07-08T08:01:27.659Z,2428.00
2018-07-08T08:03:59.165Z,2452.00
2018-07-08T08:05:20.173Z,2416.00
2018-07-08T08:06:01.605Z,2432.00
2018-07-08T08:07:13.673Z,2420.00
2018-07-08T08:08:19.877Z,2420.00
2018-07-08T08:08:59.673Z,2392.00
2018-07-08T08:09:59.674Z,2404.00
2018-07-08T08:12:33.420Z,2348.00
2018-07-08T08:13:31.125Z,2460.00
2018-07-08T08:14:31.948Z,2400.00
2018-07-08T08:15:52.953Z,2480.00
2018-07-08T08:16:53.940Z,2536.00
2018-07-08T08:17:32.495Z,2544.00
2018-07-08T08:18:32.441Z,2564.00
2018-07-08T08:19:53.443Z,2604.00
2018-07-08T08:20:32.443Z,2604.00
2018-07-08T08:21:54.440Z,2624.00
2018-07-08T08:22:53.942Z,2660.00
2018-07-08T08:23:32.943Z,2648.00
2018-07-08T08:24:53.942Z,2644.00
2018-07-08T08:25:53.943Z,2644.00
2018-07-08T08:26:55.916Z,2744.00
2018-07-08T08:27:57.375Z,2540.00
2018-07-08T08:28:54.441Z,2596.00
2018-07-08T08:29:33.442Z,2528.00
2018-07-08T08:30:54.971Z,2620.00
2018-07-08T08:31:54.942Z,2632.00
2018-07-08T08:32:54.952Z,2660.00
2018-07-08T08:33:54.943Z,2664.00
2018-07-08T08:34:55.442Z,2676.00
2018-07-08T08:35:34.443Z,2704.00
2018-07-08T08:38:26.997Z,2796.00
2018-07-08T08:39:05.984Z,2788.00
2018-07-08T08:40:27.981Z,2788.00
2018-07-08T08:41:27.484Z,2772.00
2018-07-08T08:42:33.484Z,2760.00
2018-07-08T08:43:06.488Z,2740.00
2018-07-08T08:44:06.485Z,2728.00
2018-07-08T08:45:06.985Z,2716.00
2018-07-08T08:46:06.990Z,2716.00
2018-07-08T08:49:01.617Z,2712.00
2018-07-08T08:49:39.685Z,2716.00
2018-07-08T08:50:39.684Z,2712.00
2018-07-08T08:51:40.189Z,2708.00
2018-07-08T08:52:54.188Z,2692.00
2018-07-08T08:54:01.185Z,2684.00
2018-07-08T08:54:40.185Z,2692.00
2018-07-08T08:57:34.903Z,2708.00
2018-07-08T08:58:11.948Z,2692.00
2018-07-08T08:59:12.450Z,2684.00
2018-07-08T09:00:12.451Z,2704.00
2018-07-08T09:01:12.447Z,2696.00
2018-07-08T09:02:12.447Z,2704.00
2018-07-08T09:03:12.947Z,2720.00
2018-07-08T09:05:44.354Z,2744.00
2018-07-08T09:09:47.348Z,2752.00
2018-07-08T09:10:47.396Z,2756.00
2018-07-08T09:11:47.349Z,2776.00
2018-07-08T09:12:49.859Z,2756.00
2018-07-08T09:15:19.736Z,2800.00
2018-07-08T09:16:21.179Z,2800.00
2018-07-08T09:17:19.788Z,2808.00
2018-07-08T09:18:21.700Z,2824.00
2018-07-08T09:19:21.672Z,2816.00
2018-07-08T09:20:20.240Z,2852.00
2018-07-08T09:21:20.245Z,2848.00
2018-07-08T09:22:20.740Z,2864.00
2018-07-08T09:23:19.969Z,2816.00
2018-07-08T09:24:41.745Z,2904.00
2018-07-08T09:25:20.741Z,2912.00
2018-07-08T09:26:22.239Z,2896.00
2018-07-08T09:27:21.243Z,2884.00
2018-07-08T09:28:35.249Z,2900.00
2018-07-08T09:29:21.248Z,2884.00
2018-07-08T09:30:21.741Z,2928.00
2018-07-08T09:31:20.992Z,2892.00
2018-07-08T09:32:21.742Z,2928.00
2018-07-08T09:33:21.740Z,2912.00
2018-07-08T09:35:53.512Z,2936.00
2018-07-08T09:38:25.049Z,2940.00
2018-07-08T09:39:25.061Z,2948.00
2018-07-08T09:40:25.053Z,2948.00
2018-07-08T09:42:56.097Z,2968.00
2018-07-08T09:44:17.826Z,2968.00
2018-07-08T09:44:56.824Z,2972.00
2018-07-08T09:46:01.790Z,2980.00
2018-07-08T09:47:18.321Z,3008.00
2018-07-08T09:48:00.256Z,2976.00
2018-07-08T09:48:57.324Z,2996.00
2018-07-08T09:50:18.824Z,3024.00
2018-07-08T09:50:57.827Z,3000.00
2018-07-08T09:51:57.831Z,2996.00
2018-07-08T09:52:57.826Z,3000.00
2018-07-08T09:55:29.602Z,3020.00
2018-07-08T09:56:31.094Z,3016.00
2018-07-08T09:57:32.541Z,3024.00
2018-07-08T09:58:30.109Z,3004.00
2018-07-08T09:59:30.108Z,3008.00
2018-07-08T10:03:35.560Z,3032.00
2018-07-08T10:04:33.585Z,3040.00
2018-07-08T10:05:33.568Z,3052.00
2018-07-08T10:06:34.498Z,3096.00
2018-07-08T10:07:34.066Z,3068.00
2018-07-08T10:08:56.498Z,3104.00
2018-07-08T10:09:55.066Z,3116.00
2018-07-08T10:10:55.105Z,3140.00
2018-07-08T10:11:55.566Z,3128.00
2018-07-08T10:12:55.568Z,3144.00
2018-07-08T10:13:33.928Z,3168.00
2018-07-08T10:14:34.569Z,3148.00
2018-07-08T10:15:56.067Z,3156.00
2018-07-08T10:16:35.073Z,3168.00
2018-07-08T10:17:35.108Z,3180.00
2018-07-08T10:18:35.067Z,3204.00
2018-07-08T10:19:35.646Z,3224.00
2018-07-08T10:20:35.566Z,3252.00
2018-07-08T10:21:56.567Z,3248.00
2018-07-08T10:22:35.566Z,3308.00
2018-07-08T10:23:35.172Z,3268.00
2018-07-08T10:24:36.066Z,3288.00
2018-07-08T10:25:36.067Z,3280.00
2018-07-08T10:26:57.068Z,3304.00
2018-07-08T10:27:36.567Z,3324.00
2018-07-08T10:28:35.802Z,3320.00
2018-07-08T10:29:36.568Z,3332.00
2018-07-08T10:30:36.569Z,3328.00
2018-07-08T10:31:59.533Z,3352.00
2018-07-08T10:32:37.071Z,3352.00
2018-07-08T10:33:37.079Z,3356.00
2018-07-08T10:34:37.068Z,3380.00
2018-07-08T10:37:09.333Z,3396.00
2018-07-08T10:38:31.273Z,3408.00
2018-07-08T10:39:09.340Z,3428.00
2018-07-08T10:40:09.849Z,3428.00
2018-07-08T10:41:30.848Z,3440.00
2018-07-08T10:42:11.850Z,3452.00
2018-07-08T10:43:23.891Z,3492.00
2018-07-08T10:50:16.221Z,3548.00
2018-07-08T10:52:54.666Z,3564.00
2018-07-08T10:53:47.732Z,3584.00
2018-07-08T10:54:47.738Z,3584.00
2018-07-08T10:56:02.235Z,3592.00
2018-07-08T10:56:48.233Z,3600.00
2018-07-08T10:57:48.233Z,3616.00
2018-07-08T10:58:48.234Z,3680.00
2018-07-08T11:01:41.022Z,3604.00
2018-07-08T11:03:51.522Z,3616.00
2018-07-08T11:04:51.529Z,3632.00
2018-07-08T11:05:51.523Z,3640.00
2018-07-08T11:06:58.024Z,3652.00
2018-07-08T11:07:52.032Z,3668.00
2018-07-08T11:08:52.028Z,3684.00
2018-07-08T11:09:52.025Z,3700.00
2018-07-08T11:12:23.801Z,3732.00
2018-07-08T11:13:23.808Z,3740.00
2018-07-08T11:14:23.816Z,3764.00
2018-07-08T11:16:57.613Z,3796.00
2018-07-08T11:18:15.958Z,3784.00
2018-07-08T11:20:27.741Z,3800.00
2018-07-08T11:21:27.734Z,3796.00
2018-07-08T11:22:27.733Z,3812.00
2018-07-08T11:23:49.732Z,3820.00
2018-07-08T11:24:28.235Z,3832.00
2018-07-08T11:28:30.891Z,3868.00
2018-07-08T11:29:52.600Z,3872.00
2018-07-08T11:30:52.600Z,3888.00
2018-07-08T11:33:17.865Z,3924.00
2018-07-08T11:34:24.865Z,3920.00
2018-07-08T11:35:25.798Z,3924.00
2018-07-08T11:36:25.365Z,3936.00
2018-07-08T11:37:05.364Z,3944.00
2018-07-08T11:38:04.366Z,3960.00
2018-07-08T11:39:04.374Z,3964.00
2018-07-08T11:41:57.127Z,4008.00
2018-07-08T11:44:34.649Z,4048.00
2018-07-08T11:45:07.658Z,4064.00
2018-07-08T11:46:07.664Z,4072.00
2018-07-08T11:47:09.596Z,4084.00
2018-07-08T11:48:08.157Z,4092.00
2018-07-08T11:49:08.157Z,4088.00
2018-07-08T11:50:08.157Z,4116.00
2018-07-08T11:51:08.658Z,4136.00
2018-07-08T11:52:10.093Z,4132.00
2018-07-08T11:53:10.089Z,4144.00
2018-07-08T11:54:08.658Z,4144.00
2018-07-08T11:55:31.174Z,4148.00
2018-07-08T11:56:30.160Z,4156.00
2018-07-08T11:57:10.155Z,4164.00
2018-07-08T11:58:10.643Z,4156.00
2018-07-08T11:59:30.658Z,4172.00
2018-07-08T12:02:02.044Z,4184.00
2018-07-08T12:03:02.051Z,4176.00
2018-07-08T12:03:41.051Z,4200.00
2018-07-08T12:04:41.573Z,4216.00
2018-07-08T12:06:02.551Z,4248.00
2018-07-08T12:06:42.560Z,4284.00
2018-07-08T12:07:41.552Z,4280.00
2018-07-08T12:09:04.527Z,4276.00
2018-07-08T12:11:13.412Z,4336.00
2018-07-08T12:12:13.423Z,4364.00
2018-07-08T12:13:27.929Z,4412.00
2018-07-08T12:16:05.456Z,4480.00
2018-07-08T12:16:45.206Z,4500.00
2018-07-08T12:17:45.206Z,4536.00
2018-07-08T12:18:49.139Z,4572.00
2018-07-08T12:19:45.707Z,4624.00
2018-07-08T12:20:47.184Z,4668.00
2018-07-08T12:21:45.750Z,4688.00
2018-07-08T12:25:51.294Z,4828.00
2018-07-08T12:27:09.860Z,4860.00
2018-07-08T12:27:48.863Z,4908.00
2018-07-08T12:29:10.362Z,4964.00
2018-07-08T12:30:11.362Z,5012.00
2018-07-08T12:30:49.360Z,5056.00
2018-07-08T12:33:35.498Z,5172.00
2018-07-08T12:34:27.504Z,5244.00
2018-07-08T12:35:20.885Z,5372.00
2018-07-08T12:36:21.505Z,5328.00
2018-07-08T12:37:22.005Z,5360.00
2018-07-08T12:38:22.004Z,5408.00
2018-07-08T12:39:22.005Z,5448.00
2018-07-08T12:40:22.015Z,5476.00
2018-07-08T12:42:53.771Z,5564.00
2018-07-08T12:43:53.775Z,5604.00
2018-07-08T12:44:53.866Z,5648.00
2018-07-08T12:45:56.279Z,5696.00
2018-07-08T12:47:15.278Z,5740.00
2018-07-08T12:47:54.284Z,5780.00
2018-07-08T12:48:54.290Z,5840.00
2018-07-08T12:49:54.776Z,5876.00
2018-07-08T12:51:21.824Z,5936.00
2018-07-08T12:51:54.777Z,5980.00
2018-07-08T12:52:54.777Z,6024.00
2018-07-08T12:55:26.550Z,6120.00
2018-07-08T12:56:26.554Z,6152.00
2018-07-08T12:57:26.556Z,6184.00
2018-07-08T12:58:47.283Z,6220.00
2018-07-08T12:59:30.016Z,6240.00
2018-07-08T13:00:48.066Z,6260.00
2018-07-08T13:01:27.056Z,6308.00
2018-07-08T13:02:27.557Z,6348.00
2018-07-08T13:03:50.030Z,6384.00
2018-07-08T13:04:26.877Z,6428.00
2018-07-08T13:05:26.984Z,6468.00
2018-07-08T13:08:05.195Z,6592.00
2018-07-08T13:08:59.281Z,6648.00
2018-07-08T13:10:01.238Z,6668.00
2018-07-08T13:11:20.763Z,6724.00
2018-07-08T13:12:20.781Z,6768.00
2018-07-08T13:13:00.739Z,6828.00
2018-07-08T13:13:59.763Z,6892.00
2018-07-08T13:15:00.263Z,6952.00
2018-07-08T13:16:00.263Z,7016.00
2018-07-08T13:17:02.275Z,7088.00
2018-07-08T13:18:00.271Z,7156.00
2018-07-08T13:19:23.199Z,7232.00
2018-07-08T13:20:00.784Z,7304.00
2018-07-08T13:21:00.765Z,7384.00
2018-07-08T13:22:00.295Z,7476.00
2018-07-08T13:23:01.265Z,7568.00
2018-07-08T13:24:01.264Z,7644.00
2018-07-08T13:25:01.266Z,7712.00
2018-07-08T13:26:01.264Z,7792.00
2018-07-08T13:27:01.763Z,7860.00
2018-07-08T13:28:01.771Z,7940.00
2018-07-08T13:29:01.765Z,8020.00
2018-07-08T13:30:01.765Z,8100.00
2018-07-08T13:35:36.451Z,8440.00
2018-07-08T13:36:36.456Z,8500.00
2018-07-08T13:37:36.460Z,8576.00
2018-07-08T13:40:08.235Z,8736.00
2018-07-08T13:41:08.239Z,8796.00
2018-07-08T13:42:08.746Z,8836.00
2018-07-08T13:43:08.740Z,8892.00
2018-07-08T13:47:11.594Z,9144.00
2018-07-08T13:48:33.589Z,9184.00
2018-07-08T13:49:11.594Z,9236.00
2018-07-08T13:52:04.367Z,9356.00
2018-07-08T13:52:43.380Z,9276.00
2018-07-08T13:54:05.810Z,9488.00
2018-07-08T13:56:15.140Z,9608.00
2018-07-08T13:57:15.149Z,9616.00
2018-07-08T13:58:29.637Z,9692.00
2018-07-08T14:00:46.910Z,9824.00
2018-07-08T14:03:24.427Z,9924.00
2018-07-08T14:04:19.366Z,9976.00
2018-07-08T14:05:18.434Z,10036.00
2018-07-08T14:06:39.943Z,10068.00
2018-07-08T14:07:18.934Z,10100.00
2018-07-08T14:08:39.935Z,10152.00
2018-07-08T14:09:18.965Z,10188.00
2018-07-08T14:11:50.702Z,10296.00
2018-07-08T14:12:50.709Z,10316.00
2018-07-08T14:15:22.406Z,10368.00
2018-07-08T14:18:14.930Z,10476.00
2018-07-08T14:18:55.383Z,10492.00
2018-07-08T14:20:14.978Z,10520.00
2018-07-08T14:22:47.176Z,10604.00
2018-07-08T14:23:29.182Z,10620.00
2018-07-08T14:27:50.177Z,10648.00
2018-07-08T14:28:31.184Z,10696.00
2018-07-08T14:29:50.179Z,10708.00
2018-07-08T14:35:03.847Z,10800.00
2018-07-08T14:36:03.862Z,10808.00
2018-07-08T14:37:05.817Z,10836.00
2018-07-08T14:38:04.422Z,10856.00
2018-07-08T14:39:05.306Z,10828.00
2018-07-08T14:40:04.355Z,10816.00
2018-07-08T14:41:25.356Z,10812.00
2018-07-08T14:43:35.398Z,10896.00
2018-07-08T14:44:36.183Z,10896.00
2018-07-08T14:45:36.141Z,10912.00
2018-07-08T14:46:36.644Z,10920.00
2018-07-08T14:47:37.573Z,10912.00
2018-07-08T14:48:35.996Z,10908.00
2018-07-08T14:49:36.640Z,10908.00
2018-07-08T14:50:37.141Z,10884.00
2018-07-08T14:51:58.141Z,10852.00
2018-07-08T14:52:37.173Z,10832.00
2018-07-08T14:53:36.644Z,10812.00
2018-07-08T14:58:01.391Z,10684.00
2018-07-08T15:00:32.909Z,10664.00
2018-07-08T15:01:11.930Z,10588.00
2018-07-08T15:02:32.933Z,10560.00
2018-07-08T15:03:12.416Z,10528.00
2018-07-08T15:05:43.820Z,10400.00
2018-07-08T15:06:43.827Z,10340.00
2018-07-08T15:07:43.828Z,10316.00
2018-07-08T15:08:46.328Z,10296.00
2018-07-08T15:09:44.352Z,10252.00
2018-07-08T15:10:44.328Z,10200.00
2018-07-08T15:11:44.374Z,10112.00
2018-07-08T15:14:16.151Z,9960.00
2018-07-08T15:15:16.154Z,9892.00
2018-07-08T15:16:16.181Z,9856.00
2018-07-08T15:17:16.655Z,9784.00
2018-07-08T15:18:16.662Z,9700.00
2018-07-08T15:19:16.686Z,9640.00
2018-07-08T15:20:37.657Z,9580.00
2018-07-08T15:26:14.103Z,9196.00
2018-07-08T15:26:54.647Z,9132.00
2018-07-08T15:27:58.146Z,9068.00
2018-07-08T15:29:13.148Z,9024.00
2018-07-08T15:29:52.143Z,8968.00
2018-07-08T15:30:52.151Z,8888.00
2018-07-08T15:31:52.652Z,8824.00
2018-07-08T15:33:19.645Z,8716.00
2018-07-08T15:33:52.645Z,8628.00
2018-07-08T15:34:59.144Z,8584.00
2018-07-08T15:36:14.226Z,8544.00
2018-07-08T15:36:53.146Z,8440.00
2018-07-08T15:37:53.146Z,8360.00
2018-07-08T15:38:52.639Z,8260.00
2018-07-08T15:39:53.647Z,8228.00
2018-07-08T15:40:53.646Z,8160.00
2018-07-08T15:41:53.646Z,8100.00
2018-07-08T15:42:53.645Z,8024.00
2018-07-08T15:44:15.146Z,7940.00
2018-07-08T15:44:54.149Z,7888.00
2018-07-08T15:45:54.147Z,7820.00
2018-07-08T15:46:54.244Z,7764.00
2018-07-08T15:49:46.902Z,7616.00
2018-07-08T15:50:25.874Z,7504.00
2018-07-08T15:51:28.373Z,7452.00
2018-07-08T15:52:25.483Z,7384.00
2018-07-08T15:53:26.373Z,7312.00
2018-07-08T15:54:26.389Z,7256.00
2018-07-08T15:55:26.374Z,7204.00
2018-07-08T15:56:28.317Z,7128.00
2018-07-08T15:57:26.874Z,7088.00
2018-07-08T15:58:26.874Z,7040.00